createdAt,value
2019-05-18T00:00:51.289Z,0
2019-05-18T00:01:52.656Z,0
2019-05-18T00:02:54.004Z,0
2019-05-18T00:03:55.361Z,0
2019-05-18T00:04:56.719Z,0
2019-05-18T00:05:58.065Z,0
2019-05-18T00:06:59.423Z,0
2019-05-18T00:08:00.770Z,0
2019-05-18T00:09:02.223Z,0
2019-05-18T00:10:03.565Z,0
2019-05-18T00:11:04.921Z,0
2019-05-18T00:12:06.268Z,0
2019-05-18T00:13:07.628Z,0
2019-05-18T00:14:08.970Z,0
2019-05-18T00:15:10.328Z,0
2019-05-18T00:16:11.688Z,0
2019-05-18T00:17:24.398Z,0
2019-05-18T00:18:53.968Z,0
2019-05-18T00:19:55.315Z,0
2019-05-18T00:20:56.695Z,0
2019-05-18T00:21:58.089Z,0
2019-05-18T00:22:59.415Z,0
2019-05-18T00:24:00.835Z,0
2019-05-18T00:25:02.205Z,0
2019-05-18T00:26:03.605Z,0
2019-05-18T00:27:04.984Z,0
2019-05-18T00:28:06.376Z,0
2019-05-18T00:29:07.759Z,0
2019-05-18T00:30:09.173Z,0
2019-05-18T00:31:10.559Z,0
2019-05-18T00:32:12.016Z,0
2019-05-18T00:33:13.336Z,0
2019-05-18T00:34:14.686Z,0
2019-05-18T00:35:16.758Z,0
2019-05-18T00:36:17.359Z,0
2019-05-18T00:37:18.801Z,0
2019-05-18T00:38:20.121Z,0
2019-05-18T00:39:21.506Z,0
2019-05-18T00:40:22.858Z,0
2019-05-18T00:41:24.214Z,0
2019-05-18T00:42:25.553Z,0
2019-05-18T00:43:26.915Z,0
2019-05-18T00:44:28.266Z,0
2019-05-18T00:45:29.625Z,0
2019-05-18T00:46:30.977Z,0
2019-05-18T00:47:40.873Z,0
2019-05-18T00:48:33.646Z,0
2019-05-18T00:49:35.115Z,0
2019-05-18T00:50:36.466Z,0
2019-05-18T00:51:37.815Z,0
2019-05-18T00:52:39.170Z,0
2019-05-18T00:53:40.524Z,0
2019-05-18T00:54:41.888Z,0
2019-05-18T00:55:43.235Z,0
2019-05-18T00:56:44.600Z,0
2019-05-18T00:57:45.961Z,0
2019-05-18T00:58:47.316Z,0
2019-05-18T00:59:48.728Z,0
2019-05-18T01:00:50.082Z,0
2019-05-18T01:01:51.437Z,0
2019-05-18T01:02:52.795Z,0
2019-05-18T01:03:54.164Z,0
2019-05-18T01:04:55.516Z,0
2019-05-18T01:05:56.869Z,0
2019-05-18T01:06:58.225Z,0
2019-05-18T01:07:59.594Z,0
2019-05-18T01:09:00.940Z,0
2019-05-18T01:10:02.343Z,0
2019-05-18T01:11:03.681Z,0
2019-05-18T01:12:05.030Z,0
2019-05-18T01:13:06.389Z,0
2019-05-18T01:14:07.753Z,0
2019-05-18T01:15:09.101Z,0
2019-05-18T01:16:10.451Z,0
2019-05-18T01:17:11.810Z,0
2019-05-18T01:18:13.160Z,0
2019-05-18T01:19:14.512Z,0
2019-05-18T01:20:15.879Z,0
2019-05-18T01:21:17.291Z,0
2019-05-18T01:22:18.591Z,0
2019-05-18T01:23:19.963Z,0
2019-05-18T01:24:21.342Z,0
2019-05-18T01:25:22.677Z,0
2019-05-18T01:26:24.071Z,0
2019-05-18T01:27:25.422Z,0
2019-05-18T01:28:26.779Z,0
2019-05-18T01:29:28.144Z,0
2019-05-18T01:30:29.492Z,0
2019-05-18T01:31:30.862Z,0
2019-05-18T01:32:32.204Z,0
2019-05-18T01:33:33.559Z,0
2019-05-18T01:34:34.919Z,0
2019-05-18T01:35:36.291Z,0
2019-05-18T01:36:37.646Z,0
2019-05-18T01:37:38.996Z,0
2019-05-18T01:38:40.350Z,0
2019-05-18T01:39:41.700Z,0
2019-05-18T01:40:43.046Z,0
2019-05-18T01:41:44.407Z,0
2019-05-18T01:42:45.766Z,0
2019-05-18T01:43:47.166Z,0
2019-05-18T01:44:48.465Z,0
2019-05-18T01:45:49.836Z,0
2019-05-18T01:46:51.234Z,0
2019-05-18T01:47:52.595Z,0
2019-05-18T01:48:53.936Z,0
2019-05-18T01:49:55.301Z,0
2019-05-18T01:50:56.656Z,0
2019-05-18T01:51:58.014Z,0
2019-05-18T01:52:59.366Z,0
2019-05-18T01:54:00.723Z,0
2019-05-18T01:55:02.073Z,0
2019-05-18T01:56:03.437Z,0
2019-05-18T01:57:04.815Z,0
2019-05-18T01:58:06.156Z,0
2019-05-18T01:59:07.520Z,0
2019-05-18T02:00:08.882Z,0
2019-05-18T02:01:10.227Z,0
2019-05-18T02:02:11.582Z,0
2019-05-18T02:03:12.926Z,0
2019-05-18T02:04:14.292Z,0
2019-05-18T02:05:15.660Z,0
2019-05-18T02:06:17.012Z,0
2019-05-18T02:07:18.357Z,0
2019-05-18T02:08:19.713Z,0
2019-05-18T02:09:21.061Z,0
2019-05-18T02:10:22.431Z,0
2019-05-18T02:11:23.767Z,0
2019-05-18T02:12:25.121Z,0
2019-05-18T02:13:26.491Z,0
2019-05-18T02:14:27.840Z,0
2019-05-18T02:15:29.195Z,0
2019-05-18T02:16:30.551Z,0
2019-05-18T02:17:31.895Z,0
2019-05-18T02:18:33.245Z,0
2019-05-18T02:19:34.602Z,0
2019-05-18T02:20:35.955Z,0
2019-05-18T02:21:37.312Z,0
2019-05-18T02:22:38.663Z,0
2019-05-18T02:23:40.063Z,0
2019-05-18T02:24:41.402Z,0
2019-05-18T02:25:42.755Z,0
2019-05-18T02:26:44.110Z,0
2019-05-18T02:27:45.458Z,0
2019-05-18T02:28:46.820Z,0
2019-05-18T02:29:48.186Z,0
2019-05-18T02:30:49.536Z,0
2019-05-18T02:31:50.891Z,0
2019-05-18T02:32:52.247Z,0
2019-05-18T02:33:53.597Z,0
2019-05-18T02:34:54.952Z,0
2019-05-18T02:35:56.327Z,0
2019-05-18T02:36:57.656Z,0
2019-05-18T02:37:59.007Z,0
2019-05-18T02:39:00.361Z,0
2019-05-18T02:40:01.714Z,0
2019-05-18T02:41:03.068Z,0
2019-05-18T02:42:04.451Z,0
2019-05-18T02:43:05.801Z,0
2019-05-18T02:44:07.152Z,0
2019-05-18T02:45:08.507Z,0
2019-05-18T02:46:09.853Z,0
2019-05-18T02:47:11.209Z,0
2019-05-18T02:48:12.608Z,0
2019-05-18T02:49:13.912Z,0
2019-05-18T02:50:15.264Z,0
2019-05-18T02:51:16.615Z,0
2019-05-18T02:52:17.975Z,0
2019-05-18T02:53:19.330Z,0
2019-05-18T02:54:20.685Z,0
2019-05-18T02:55:22.037Z,0
2019-05-18T02:56:23.401Z,0
2019-05-18T02:57:24.742Z,0
2019-05-18T02:58:26.091Z,0
2019-05-18T02:59:27.441Z,0
2019-05-18T03:00:28.796Z,0
2019-05-18T03:01:30.142Z,0
2019-05-18T03:02:31.498Z,0
2019-05-18T03:03:32.858Z,4
2019-05-18T03:04:34.212Z,4
2019-05-18T03:05:35.565Z,4
2019-05-18T03:06:36.919Z,4
2019-05-18T03:07:38.298Z,4
2019-05-18T03:08:39.648Z,4
2019-05-18T03:09:41.018Z,8
2019-05-18T03:10:42.512Z,8
2019-05-18T03:11:43.863Z,8
2019-05-18T03:12:45.223Z,8
2019-05-18T03:13:46.580Z,12
2019-05-18T03:14:47.932Z,16
2019-05-18T03:15:49.282Z,20
2019-05-18T03:16:50.637Z,20
2019-05-18T03:17:52.025Z,20
2019-05-18T03:19:07.757Z,28
2019-05-18T03:19:54.672Z,28
2019-05-18T03:20:56.024Z,36
2019-05-18T03:22:00.718Z,36
2019-05-18T03:22:58.714Z,44
2019-05-18T03:24:00.067Z,48
2019-05-18T03:25:01.424Z,56
2019-05-18T03:26:02.776Z,60
2019-05-18T03:27:04.119Z,72
2019-05-18T03:28:05.472Z,76
2019-05-18T03:29:06.833Z,84
2019-05-18T03:30:08.182Z,92
2019-05-18T03:31:09.554Z,104
2019-05-18T03:32:10.915Z,112
2019-05-18T03:33:12.285Z,120
2019-05-18T03:34:13.635Z,132
2019-05-18T03:35:14.998Z,140
2019-05-18T03:36:16.336Z,156
2019-05-18T03:37:17.713Z,176
2019-05-18T03:38:19.082Z,192
2019-05-18T03:39:20.424Z,208
2019-05-18T03:40:21.778Z,224
2019-05-18T03:41:23.150Z,240
2019-05-18T03:42:24.537Z,256
2019-05-18T03:43:25.895Z,268
2019-05-18T03:44:27.248Z,288
2019-05-18T03:45:28.609Z,308
2019-05-18T03:46:29.967Z,324
2019-05-18T03:47:31.325Z,348
2019-05-18T03:48:32.684Z,372
2019-05-18T03:49:34.037Z,400
2019-05-18T03:50:35.403Z,432
2019-05-18T03:51:36.753Z,468
2019-05-18T03:52:38.201Z,504
2019-05-18T03:53:39.436Z,532
2019-05-18T03:54:40.789Z,564
2019-05-18T03:55:42.144Z,592
2019-05-18T03:56:43.514Z,620
2019-05-18T03:57:44.870Z,644
2019-05-18T03:58:46.230Z,668
2019-05-18T03:59:47.617Z,692
2019-05-18T04:00:48.991Z,716
2019-05-18T04:01:50.340Z,736
2019-05-18T04:02:51.702Z,752
2019-05-18T04:03:53.094Z,772
2019-05-18T04:04:54.438Z,792
2019-05-18T04:05:55.775Z,800
2019-05-18T04:06:57.125Z,812
2019-05-18T04:07:58.490Z,836
2019-05-18T04:08:59.843Z,888
2019-05-18T04:10:01.199Z,948
2019-05-18T04:11:02.554Z,1004
2019-05-18T04:12:03.918Z,1056
2019-05-18T04:13:05.274Z,1124
2019-05-18T04:14:08.482Z,1204
2019-05-18T04:15:07.965Z,1268
2019-05-18T04:16:09.324Z,1312
2019-05-18T04:17:10.679Z,1356
2019-05-18T04:18:12.044Z,1400
2019-05-18T04:19:13.394Z,1432
2019-05-18T04:20:14.758Z,1460
2019-05-18T04:21:16.119Z,1488
2019-05-18T04:22:17.479Z,1516
2019-05-18T04:23:18.834Z,1556
2019-05-18T04:24:20.198Z,1592
2019-05-18T04:25:21.561Z,1620
2019-05-18T04:26:22.925Z,1652
2019-05-18T04:27:24.270Z,1692
2019-05-18T04:28:25.636Z,1732
2019-05-18T04:29:26.989Z,1780
2019-05-18T04:30:28.339Z,1836
2019-05-18T04:31:32.160Z,1892
2019-05-18T04:32:31.062Z,1956
2019-05-18T04:33:32.421Z,2020
2019-05-18T04:34:33.809Z,2080
2019-05-18T04:35:35.164Z,2156
2019-05-18T04:36:36.525Z,2228
2019-05-18T04:37:37.884Z,2324
2019-05-18T04:38:39.245Z,2428
2019-05-18T04:39:40.604Z,2560
2019-05-18T04:40:41.963Z,2724
2019-05-18T04:41:43.328Z,2900
2019-05-18T04:42:44.689Z,3076
2019-05-18T04:43:46.050Z,3260
2019-05-18T04:44:47.414Z,3412
2019-05-18T04:45:48.770Z,3536
2019-05-18T04:46:50.125Z,3624
2019-05-18T04:47:51.502Z,3656
2019-05-18T04:48:52.857Z,3644
2019-05-18T04:50:04.344Z,3612
2019-05-18T04:50:55.543Z,3588
2019-05-18T04:51:56.901Z,3588
2019-05-18T04:52:58.278Z,3640
2019-05-18T04:53:59.634Z,3724
2019-05-18T04:55:00.999Z,3808
2019-05-18T04:56:02.351Z,3884
2019-05-18T04:57:03.747Z,3948
2019-05-18T04:58:05.103Z,4000
2019-05-18T04:59:06.511Z,4044
2019-05-18T05:00:07.865Z,4068
2019-05-18T05:01:09.229Z,4092
2019-05-18T05:02:10.590Z,4120
2019-05-18T05:03:11.954Z,4152
2019-05-18T05:04:13.314Z,4180
2019-05-18T05:05:14.674Z,4196
2019-05-18T05:06:16.038Z,4208
2019-05-18T05:07:17.406Z,4216
2019-05-18T05:08:18.774Z,4212
2019-05-18T05:09:20.140Z,4208
2019-05-18T05:10:21.495Z,4184
2019-05-18T05:11:22.859Z,4156
2019-05-18T05:12:24.223Z,4124
2019-05-18T05:13:25.595Z,4096
2019-05-18T05:14:26.947Z,4076
2019-05-18T05:15:28.306Z,4068
2019-05-18T05:16:29.664Z,4068
2019-05-18T05:17:31.020Z,4088
2019-05-18T05:18:32.386Z,4124
2019-05-18T05:19:33.750Z,4164
2019-05-18T05:20:35.094Z,4216
2019-05-18T05:21:36.454Z,4264
2019-05-18T05:22:37.823Z,4308
2019-05-18T05:23:39.189Z,4352
2019-05-18T05:24:40.552Z,4388
2019-05-18T05:25:41.908Z,4432
2019-05-18T05:26:43.301Z,4484
2019-05-18T05:27:44.660Z,4552
2019-05-18T05:28:46.022Z,4628
2019-05-18T05:29:47.425Z,4716
2019-05-18T05:30:48.785Z,4800
2019-05-18T05:31:50.159Z,4872
2019-05-18T05:32:51.520Z,4968
2019-05-18T05:33:52.880Z,5080
2019-05-18T05:34:54.245Z,5200
2019-05-18T05:35:55.621Z,5300
2019-05-18T05:36:56.981Z,5388
2019-05-18T05:37:58.341Z,5452
2019-05-18T05:38:59.712Z,5492
2019-05-18T05:40:01.074Z,5532
2019-05-18T05:41:02.502Z,5576
2019-05-18T05:42:03.839Z,5660
2019-05-18T05:43:05.195Z,5776
2019-05-18T05:44:06.561Z,5916
2019-05-18T05:45:07.911Z,6052
2019-05-18T05:46:09.274Z,6184
2019-05-18T05:47:10.640Z,6316
2019-05-18T05:48:12.021Z,6444
2019-05-18T05:49:13.375Z,6568
2019-05-18T05:50:14.742Z,6676
2019-05-18T05:51:16.109Z,6780
2019-05-18T05:52:17.476Z,6872
2019-05-18T05:53:18.833Z,6948
2019-05-18T05:54:20.202Z,7036
2019-05-18T05:55:21.576Z,7128
2019-05-18T05:56:22.935Z,7244
2019-05-18T05:57:24.296Z,7360
2019-05-18T05:58:25.723Z,7496
2019-05-18T05:59:27.036Z,7660
2019-05-18T06:00:28.392Z,7868
2019-05-18T06:01:29.781Z,8100
2019-05-18T06:02:31.145Z,8324
2019-05-18T06:03:32.510Z,8516
2019-05-18T06:04:33.870Z,8668
2019-05-18T06:05:35.240Z,8792
2019-05-18T06:06:36.605Z,8872
2019-05-18T06:07:37.966Z,8896
2019-05-18T06:08:39.331Z,8876
2019-05-18T06:09:40.695Z,8836
2019-05-18T06:10:42.472Z,8768
2019-05-18T06:11:43.865Z,8680
2019-05-18T06:12:45.202Z,8576
2019-05-18T06:13:46.559Z,8460
2019-05-18T06:14:47.925Z,8344
2019-05-18T06:15:49.291Z,8244
2019-05-18T06:16:50.655Z,8152
2019-05-18T06:17:52.007Z,8056
2019-05-18T06:18:53.377Z,7968
2019-05-18T06:19:54.741Z,7872
2019-05-18T06:20:56.129Z,7772
2019-05-18T06:22:37.062Z,7596
2019-05-18T06:23:38.489Z,7512
2019-05-18T06:24:39.821Z,7464
2019-05-18T06:25:41.233Z,7444
2019-05-18T06:26:42.612Z,7456
2019-05-18T06:27:43.991Z,7528
2019-05-18T06:28:45.371Z,7672
2019-05-18T06:29:46.762Z,7868
2019-05-18T06:30:48.127Z,8088
2019-05-18T06:31:49.501Z,8320
2019-05-18T06:32:50.864Z,8556
2019-05-18T06:33:52.230Z,8828
2019-05-18T06:34:53.594Z,9132
2019-05-18T06:35:54.959Z,9496
2019-05-18T06:36:56.335Z,9916
2019-05-18T06:37:57.717Z,10360
2019-05-18T06:38:59.167Z,10828
2019-05-18T06:40:00.529Z,11292
2019-05-18T06:41:01.896Z,11720
2019-05-18T06:42:03.335Z,12040
2019-05-18T06:43:04.703Z,12268
2019-05-18T06:44:06.073Z,12436
2019-05-18T06:45:07.442Z,12540
2019-05-18T06:46:08.812Z,12640
2019-05-18T06:47:10.182Z,12768
2019-05-18T06:48:11.537Z,13000
2019-05-18T06:49:12.898Z,13408
2019-05-18T06:50:14.261Z,13984
2019-05-18T06:51:15.631Z,14760
2019-05-18T06:52:16.998Z,15872
2019-05-18T06:53:18.367Z,19648
2019-05-18T06:54:19.730Z,17104
2019-05-18T06:55:21.097Z,17536
2019-05-18T06:56:22.464Z,18176
2019-05-18T06:57:23.822Z,19456
2019-05-18T06:58:25.201Z,26464
2019-05-18T06:59:26.568Z,22400
2019-05-18T07:00:27.921Z,21728
2019-05-18T07:01:29.281Z,22016
2019-05-18T07:02:30.650Z,23808
2019-05-18T07:03:32.020Z,23264
2019-05-18T07:04:33.378Z,22976
2019-05-18T07:05:34.759Z,22880
2019-05-18T07:06:36.130Z,23392
2019-05-18T07:07:37.532Z,24160
2019-05-18T07:08:38.892Z,24736
2019-05-18T07:09:40.257Z,25184
2019-05-18T07:10:41.629Z,25472
2019-05-18T07:11:42.993Z,25472
2019-05-18T07:12:44.357Z,25216
2019-05-18T07:13:45.719Z,24768
2019-05-18T07:14:47.086Z,24160
2019-05-18T07:15:48.461Z,23520
2019-05-18T07:16:49.839Z,22880
2019-05-18T07:17:51.192Z,22496
2019-05-18T07:18:52.563Z,22240
2019-05-18T07:19:53.927Z,22016
2019-05-18T07:20:55.300Z,22144
2019-05-18T07:21:56.662Z,22624
2019-05-18T07:22:58.087Z,23264
2019-05-18T07:23:59.400Z,24064
2019-05-18T07:25:00.762Z,24896
2019-05-18T07:26:02.148Z,25824
2019-05-18T07:27:03.511Z,26720
2019-05-18T07:28:04.886Z,27872
2019-05-18T07:29:06.247Z,29344
2019-05-18T07:30:07.617Z,32928
2019-05-18T07:31:08.979Z,57888
2019-05-18T07:32:10.369Z,47360
2019-05-18T07:33:11.742Z,41536
2019-05-18T07:34:13.108Z,41568
2019-05-18T07:35:14.484Z,32256
2019-05-18T07:36:15.839Z,30368
2019-05-18T07:37:17.210Z,28640
2019-05-18T07:38:18.587Z,27680
2019-05-18T07:39:19.953Z,27168
2019-05-18T07:40:21.315Z,27104
2019-05-18T07:41:22.694Z,26752
2019-05-18T07:42:24.075Z,26208
2019-05-18T07:43:25.449Z,25728
2019-05-18T07:44:26.812Z,25664
2019-05-18T07:45:28.189Z,25984
2019-05-18T07:46:29.551Z,26528
2019-05-18T07:47:30.926Z,27424
2019-05-18T07:48:32.308Z,28736
2019-05-18T07:49:33.688Z,29504
2019-05-18T07:50:35.057Z,29856
2019-05-18T07:51:37.323Z,29760
2019-05-18T07:52:37.756Z,30560
2019-05-18T07:53:39.127Z,32480
2019-05-18T07:54:40.502Z,38240
2019-05-18T07:55:41.873Z,36256
2019-05-18T07:56:43.243Z,53024
2019-05-18T07:57:44.604Z,60480
2019-05-18T07:58:45.979Z,45632
2019-05-18T07:59:47.380Z,45888
2019-05-18T08:00:48.783Z,40480
2019-05-18T08:01:50.160Z,40000
2019-05-18T08:02:51.532Z,38912
2019-05-18T08:03:52.899Z,39232
2019-05-18T08:04:54.295Z,42656
2019-05-18T08:05:55.658Z,50688
2019-05-18T08:06:57.041Z,45376
2019-05-18T08:07:58.424Z,41216
2019-05-18T08:08:59.798Z,43616
2019-05-18T08:10:01.182Z,52608
2019-05-18T08:11:02.548Z,65088
2019-05-18T08:12:03.916Z,55264
2019-05-18T08:13:05.293Z,54112
2019-05-18T08:14:06.664Z,61760
2019-05-18T08:15:08.041Z,54816
2019-05-18T08:16:09.412Z,62976
2019-05-18T08:17:10.793Z,60640
2019-05-18T08:18:12.162Z,54112
2019-05-18T08:19:13.537Z,48800
2019-05-18T08:20:14.932Z,43008
2019-05-18T08:21:16.304Z,50752
2019-05-18T08:22:17.673Z,40928
2019-05-18T08:23:19.053Z,41760
2019-05-18T08:24:20.442Z,39200
2019-05-18T08:25:21.824Z,42432
2019-05-18T08:26:23.252Z,40320
2019-05-18T08:27:24.620Z,46048
2019-05-18T08:28:26.005Z,69120
2019-05-18T08:29:27.389Z,56928
2019-05-18T08:30:28.738Z,64672
2019-05-18T08:31:30.120Z,66848
2019-05-18T08:32:31.496Z,57216
2019-05-18T08:33:32.869Z,52896
2019-05-18T08:34:34.240Z,46048
2019-05-18T08:35:35.622Z,45216
2019-05-18T08:36:36.998Z,52640
2019-05-18T08:37:38.384Z,61280
2019-05-18T08:38:39.769Z,76128
2019-05-18T08:39:41.134Z,91648
2019-05-18T08:40:42.529Z,87552
2019-05-18T08:41:43.919Z,88896
2019-05-18T08:42:45.282Z,88896
2019-05-18T08:43:46.673Z,91488
2019-05-18T08:44:48.095Z,91136
2019-05-18T08:45:49.688Z,92704
2019-05-18T08:46:51.023Z,72672
2019-05-18T08:47:52.396Z,74176
2019-05-18T08:48:53.779Z,60608
2019-05-18T08:49:55.158Z,51328
2019-05-18T08:50:56.543Z,49056
2019-05-18T08:52:07.884Z,60096
2019-05-18T08:52:59.262Z,64160
2019-05-18T08:54:00.649Z,67744
2019-05-18T08:55:02.208Z,63520
2019-05-18T08:56:03.387Z,67328
2019-05-18T08:57:04.753Z,95872
2019-05-18T08:58:06.129Z,102176
2019-05-18T08:59:07.510Z,100800
2019-05-18T09:00:08.898Z,99552
2019-05-18T09:01:10.270Z,96672
2019-05-18T09:02:11.656Z,96960
2019-05-18T09:03:13.033Z,94016
2019-05-18T09:04:14.413Z,92032
2019-05-18T09:05:15.798Z,88320
2019-05-18T09:06:17.179Z,85088
2019-05-18T09:07:18.573Z,82528
2019-05-18T09:08:19.949Z,86464
2019-05-18T09:09:21.463Z,92416
2019-05-18T09:10:22.708Z,96256
2019-05-18T09:11:24.093Z,102624
2019-05-18T09:12:25.468Z,106080
2019-05-18T09:13:26.859Z,98016
2019-05-18T09:14:28.244Z,99328
2019-05-18T09:15:29.623Z,103488
2019-05-18T09:16:31.008Z,101344
2019-05-18T09:17:32.388Z,92224
2019-05-18T09:18:33.763Z,89952
2019-05-18T09:19:35.138Z,93792
2019-05-18T09:20:36.594Z,97792
2019-05-18T09:21:37.952Z,103168
2019-05-18T09:22:39.331Z,104864
2019-05-18T09:23:40.711Z,110976
2019-05-18T09:24:42.096Z,111808
2019-05-18T09:25:43.475Z,110688
2019-05-18T09:26:44.874Z,106272
2019-05-18T09:27:46.258Z,107072
2019-05-18T09:28:47.644Z,110272
2019-05-18T09:29:49.062Z,110752
2019-05-18T09:30:50.455Z,116352
2019-05-18T09:31:51.834Z,120032
2019-05-18T09:32:53.211Z,118368
2019-05-18T09:33:54.610Z,119360
2019-05-18T09:34:55.980Z,120896
2019-05-18T09:35:57.380Z,118752
2019-05-18T09:36:58.754Z,118752
2019-05-18T09:38:00.142Z,118048
2019-05-18T09:39:01.525Z,119264
2019-05-18T09:40:02.909Z,120896
2019-05-18T09:41:04.290Z,121024
2019-05-18T09:42:05.670Z,120160
2019-05-18T09:43:07.051Z,119936
2019-05-18T09:44:08.445Z,122368
2019-05-18T09:45:09.826Z,121536
2019-05-18T09:46:11.205Z,123488
2019-05-18T09:47:12.584Z,122016
2019-05-18T09:48:14.006Z,123520
2019-05-18T09:49:15.388Z,124000
2019-05-18T09:50:16.780Z,120992
2019-05-18T09:51:18.178Z,119808
2019-05-18T09:52:19.584Z,117824
2019-05-18T09:53:20.970Z,120288
2019-05-18T09:54:22.354Z,121280
2019-05-18T09:55:23.734Z,120032
2019-05-18T09:56:25.121Z,119168
2019-05-18T09:57:26.543Z,120384
2019-05-18T09:58:27.912Z,119744
2019-05-18T09:59:29.307Z,119680
2019-05-18T10:00:37.959Z,115008
2019-05-18T10:01:33.333Z,113888
2019-05-18T10:02:34.717Z,113792
2019-05-18T10:03:36.110Z,116320
2019-05-18T10:04:37.505Z,114336
2019-05-18T10:05:38.884Z,109120
2019-05-18T10:06:40.264Z,108448
2019-05-18T10:07:41.645Z,108032
2019-05-18T10:08:43.030Z,110016
2019-05-18T10:09:44.429Z,115232
2019-05-18T10:10:45.798Z,117408
2019-05-18T10:11:47.192Z,115712
2019-05-18T10:12:48.570Z,114304
2019-05-18T10:13:49.963Z,119360
2019-05-18T10:14:51.369Z,120224
2019-05-18T10:15:52.735Z,70464
2019-05-18T10:16:54.127Z,119584
2019-05-18T10:17:55.510Z,116768
2019-05-18T10:18:56.884Z,82976
2019-05-18T10:19:58.274Z,115264
2019-05-18T10:20:59.661Z,116672
2019-05-18T10:22:01.047Z,117920
2019-05-18T10:23:12.397Z,124416
2019-05-18T10:24:03.796Z,126688
2019-05-18T10:25:05.175Z,39872
2019-05-18T10:26:06.565Z,105312
2019-05-18T10:27:07.937Z,120672
2019-05-18T10:28:09.334Z,36000
2019-05-18T10:29:10.727Z,33184
2019-05-18T10:30:12.110Z,36576
2019-05-18T10:31:14.131Z,109376
2019-05-18T10:32:15.515Z,108000
2019-05-18T10:33:16.899Z,41472
2019-05-18T10:34:18.275Z,40896
2019-05-18T10:35:19.704Z,43264
2019-05-18T10:36:21.035Z,116960
2019-05-18T10:37:22.424Z,101152
2019-05-18T10:38:23.818Z,33824
2019-05-18T10:39:25.186Z,30112
2019-05-18T10:40:26.566Z,31072
2019-05-18T10:41:27.975Z,109632
2019-05-18T10:42:29.352Z,60672
2019-05-18T10:43:30.778Z,29504
2019-05-18T10:44:32.115Z,24256
2019-05-18T10:45:33.510Z,23200
2019-05-18T10:46:34.889Z,26016
2019-05-18T10:47:36.267Z,29792
2019-05-18T10:48:37.642Z,59520
2019-05-18T10:49:39.022Z,33184
2019-05-18T10:50:40.392Z,75744
2019-05-18T10:51:41.781Z,26592
2019-05-18T10:52:43.172Z,25856
2019-05-18T10:53:44.535Z,27488
2019-05-18T10:54:45.917Z,29696
2019-05-18T10:55:47.307Z,29504
2019-05-18T10:56:48.681Z,28768
2019-05-18T10:57:50.047Z,28928
2019-05-18T10:58:51.430Z,26336
2019-05-18T10:59:52.826Z,25472
2019-05-18T11:00:54.215Z,25824
2019-05-18T11:01:55.589Z,27680
2019-05-18T11:02:56.962Z,29504
2019-05-18T11:03:58.337Z,31904
2019-05-18T11:04:59.707Z,34464
2019-05-18T11:06:01.085Z,38400
2019-05-18T11:07:02.456Z,39008
2019-05-18T11:08:03.871Z,38752
2019-05-18T11:09:05.226Z,37408
2019-05-18T11:10:06.590Z,34944
2019-05-18T11:11:07.960Z,33984
2019-05-18T11:12:09.330Z,33664
2019-05-18T11:13:10.715Z,34400
2019-05-18T11:14:12.085Z,44448
2019-05-18T11:15:13.460Z,33952
2019-05-18T11:16:14.837Z,66752
2019-05-18T11:17:16.217Z,74464
2019-05-18T11:18:17.585Z,27424
2019-05-18T11:19:18.992Z,25984
2019-05-18T11:20:20.356Z,24608
2019-05-18T11:21:21.743Z,23328
2019-05-18T11:22:23.107Z,22240
2019-05-18T11:23:24.498Z,22112
2019-05-18T11:24:25.873Z,22432
2019-05-18T11:25:27.235Z,23520
2019-05-18T11:26:28.610Z,25184
2019-05-18T11:27:29.987Z,26656
2019-05-18T11:28:31.361Z,29024
2019-05-18T11:29:32.748Z,43744
2019-05-18T11:30:34.957Z,46240
2019-05-18T11:31:36.332Z,59328
2019-05-18T11:32:38.206Z,32992
2019-05-18T11:33:39.578Z,30336
2019-05-18T11:34:40.950Z,29504
2019-05-18T11:35:42.334Z,30016
2019-05-18T11:36:43.767Z,30752
2019-05-18T11:37:45.086Z,31808
2019-05-18T11:38:46.472Z,33440
2019-05-18T11:39:47.900Z,39904
2019-05-18T11:40:49.267Z,75424
2019-05-18T11:41:50.642Z,36448
2019-05-18T11:42:52.013Z,34848
2019-05-18T11:43:53.388Z,39200
2019-05-18T11:44:54.774Z,35200
2019-05-18T11:45:56.138Z,33056
2019-05-18T11:46:57.507Z,31008
2019-05-18T11:47:58.876Z,31040
2019-05-18T11:49:00.247Z,32832
2019-05-18T11:50:01.715Z,38400
2019-05-18T11:51:02.962Z,64832
2019-05-18T11:52:04.344Z,89056
2019-05-18T11:53:05.709Z,93056
2019-05-18T11:54:07.106Z,82272
2019-05-18T11:55:08.475Z,100448
2019-05-18T11:56:09.870Z,96704
2019-05-18T11:57:11.277Z,49664
2019-05-18T11:58:12.582Z,69344
2019-05-18T11:59:15.718Z,96512
2019-05-18T12:00:15.296Z,58720
2019-05-18T12:01:16.712Z,105376
2019-05-18T12:02:18.086Z,107008
2019-05-18T12:03:19.493Z,107008
2019-05-18T12:04:20.861Z,96992
2019-05-18T12:05:22.236Z,102048
2019-05-18T12:06:23.618Z,97824
2019-05-18T12:07:24.984Z,85088
2019-05-18T12:08:26.368Z,57024
2019-05-18T12:09:27.746Z,34016
2019-05-18T12:10:29.152Z,32064
2019-05-18T12:11:30.543Z,31648
2019-05-18T12:12:31.943Z,32384
2019-05-18T12:13:33.343Z,31136
2019-05-18T12:14:34.738Z,30464
2019-05-18T12:15:36.112Z,31136
2019-05-18T12:16:37.505Z,33184
2019-05-18T12:17:38.882Z,34816
2019-05-18T12:18:40.268Z,39392
2019-05-18T12:19:41.662Z,69120
2019-05-18T12:20:43.044Z,42848
2019-05-18T12:22:24.033Z,38784
2019-05-18T12:23:27.249Z,35488
2019-05-18T12:24:28.657Z,30656
2019-05-18T12:25:30.042Z,28288
2019-05-18T12:26:31.408Z,25920
2019-05-18T12:27:33.386Z,24128
2019-05-18T12:28:34.743Z,23168
2019-05-18T12:29:36.119Z,22912
2019-05-18T12:30:37.493Z,23360
2019-05-18T12:31:38.867Z,24256
2019-05-18T12:32:40.235Z,25984
2019-05-18T12:33:41.610Z,28384
2019-05-18T12:34:44.891Z,31648
2019-05-18T12:35:44.328Z,35232
2019-05-18T12:36:45.707Z,40256
2019-05-18T12:37:47.079Z,64800
2019-05-18T12:38:48.460Z,82208
2019-05-18T12:39:49.829Z,88608
2019-05-18T12:40:51.197Z,90976
2019-05-18T12:41:52.588Z,90816
2019-05-18T12:42:53.954Z,63744
2019-05-18T12:43:55.332Z,40224
2019-05-18T12:44:56.700Z,80000
2019-05-18T12:45:58.138Z,39712
2019-05-18T12:46:59.494Z,71392
2019-05-18T12:48:00.891Z,90592
2019-05-18T12:49:02.266Z,87616
2019-05-18T12:50:03.644Z,93024
2019-05-18T12:51:05.039Z,85632
2019-05-18T12:52:06.413Z,84832
2019-05-18T12:53:07.789Z,81088
2019-05-18T12:54:09.164Z,86464
2019-05-18T12:55:11.358Z,83200
2019-05-18T12:56:12.733Z,40128
2019-05-18T12:57:14.119Z,40384
2019-05-18T12:58:15.493Z,80992
2019-05-18T12:59:16.875Z,82240
2019-05-18T13:00:18.272Z,71776
2019-05-18T13:01:19.642Z,55712
2019-05-18T13:02:21.026Z,37120
2019-05-18T13:03:22.399Z,31040
2019-05-18T13:04:23.803Z,30496
2019-05-18T13:05:25.195Z,31936
2019-05-18T13:06:26.574Z,62496
2019-05-18T13:07:27.964Z,57120
2019-05-18T13:08:29.334Z,34048
2019-05-18T13:09:30.713Z,31136
2019-05-18T13:10:32.082Z,31968
2019-05-18T13:11:33.477Z,34272
2019-05-18T13:12:34.871Z,34976
2019-05-18T13:13:36.244Z,64096
2019-05-18T13:14:37.609Z,32928
2019-05-18T13:15:38.989Z,34080
2019-05-18T13:16:40.364Z,65888
2019-05-18T13:17:41.734Z,60160
2019-05-18T13:18:43.117Z,50752
2019-05-18T13:19:44.498Z,80640
2019-05-18T13:20:45.880Z,77312
2019-05-18T13:21:47.254Z,73568
2019-05-18T13:22:48.653Z,78560
2019-05-18T13:23:50.034Z,77824
2019-05-18T13:24:52.259Z,75776
2019-05-18T13:25:52.750Z,79104
2019-05-18T13:26:54.138Z,75808
2019-05-18T13:27:55.506Z,75776
2019-05-18T13:28:56.884Z,73216
2019-05-18T13:29:58.279Z,72160
2019-05-18T13:30:59.654Z,71648
2019-05-18T13:32:01.029Z,72992
2019-05-18T13:33:02.412Z,75392
2019-05-18T13:34:03.785Z,75424
2019-05-18T13:35:05.168Z,73312
2019-05-18T13:36:06.543Z,73056
2019-05-18T13:37:07.946Z,73792
2019-05-18T13:38:09.333Z,72064
2019-05-18T13:39:10.745Z,75424
2019-05-18T13:40:12.139Z,80256
2019-05-18T13:41:13.527Z,76096
2019-05-18T13:42:14.890Z,74496
2019-05-18T13:43:16.273Z,78400
2019-05-18T13:44:17.649Z,80416